Big Piney River (Missouri), Fort Leonard Wood (06930060)

StateMissouriLatestGood (677 cfs)
RiverBig Piney RiverRatingObservedEstimated
Updated2021-02-27 16:00 (24 minutes ago)Flood - The river is flooding. Obstacles can be treacherous or deadly. The river should be avoided at this stage for casual trips and definitely for the inexperienced. Trips should be attempted only with protective gear and equipment.Flood(none)3337
Discharge677 cfs (median: 583 cfs)High - The river is high and potentially dangerous, especially for the young and / or inexperienced. Normal stream obstacles are sometimes difficult to navigate. Extended distances can be attempted, but canoe travel may not be advisable.High(none)1572
Height3.05 feetGood - Conditions are ideal for a canoe or kayak. Boats typically will drag on fewer than one-quarter of riffles, if at all, and portages are unnecessary or rare. Normal float lengths can be attempted without a problem.Good(none)673
TrendFalling (falling over 24 hours)Low - River is low but can still be floated. Some riffles are okay but most come with significant dragging and might need a portage. Float lengths should be reduced to accommodate low flow, dragging, and portages.Low(none)395
USGSExternal icon USGS Site (External icon Google Maps)Poor - River is too low to float comfortably. Most or all riffles will drag or must be portaged and some obstacles (such as slick shelf rock) cause undue problems. Avoid the river at this stage for casual paddling trips.Poor(none)208

Trending Data

Plot Image

Trips for Big Piney River (Missouri), Fort Leonard Wood (06930060)

DateStartEndDistanceConditionDischargeHeightFishingDetails

A total of 0 rows are displayed.

Condition Descriptions

Fishing Conditions

Fish Species

Notes

Classic Trip List

The classic River Trips application is still available for use. It is updated with the new system using a data retrofit. It is no longer maintained. The original River Trips application is no longer updated (as of 1 Dec 2016) but can be checked for errors or for the condition of the data before it was converted to the new system.

Gauge Data Table

ObservationHeightDischargeMaximum
Discharge
Minimum
Discharge
Mean
Discharge
P05P10P20P25P50
(Median)
P75P80P90P95
2021-02-27 16:00 3.05 677 6490 (2013) 175 (2006) 1110 182 247 317 395 583 1450 1550 2710 6130
2021-02-27 15:00 3.08 692 6490 (2013) 175 (2006) 1110 182 247 317 395 583 1450 1550 2710 6130
2021-02-27 14:00 3.07 687 6490 (2013) 175 (2006) 1110 182 247 317 395 583 1450 1550 2710 6130
2021-02-27 13:00 3.08 692 6490 (2013) 175 (2006) 1110 182 247 317 395 583 1450 1550 2710 6130
2021-02-27 12:00 3.08 692 6490 (2013) 175 (2006) 1110 182 247 317 395 583 1450 1550 2710 6130
2021-02-27 11:00 3.10 702 6490 (2013) 175 (2006) 1110 182 247 317 395 583 1450 1550 2710 6130
2021-02-27 10:00 3.08 692 6490 (2013) 175 (2006) 1110 182 247 317 395 583 1450 1550 2710 6130
2021-02-27 09:00 3.07 687 6490 (2013) 175 (2006) 1110 182 247 317 395 583 1450 1550 2710 6130
2021-02-27 08:00 3.07 687 6490 (2013) 175 (2006) 1110 182 247 317 395 583 1450 1550 2710 6130
2021-02-27 07:00 3.06 682 6490 (2013) 175 (2006) 1110 182 247 317 395 583 1450 1550 2710 6130
2021-02-27 06:00 3.10 702 6490 (2013) 175 (2006) 1110 182 247 317 395 583 1450 1550 2710 6130
2021-02-27 05:00 3.11 708 6490 (2013) 175 (2006) 1110 182 247 317 395 583 1450 1550 2710 6130
2021-02-27 04:00 3.08 692 6490 (2013) 175 (2006) 1110 182 247 317 395 583 1450 1550 2710 6130
2021-02-27 03:00 3.13 718 6490 (2013) 175 (2006) 1110 182 247 317 395 583 1450 1550 2710 6130
2021-02-27 02:00 3.13 718 6490 (2013) 175 (2006) 1110 182 247 317 395 583 1450 1550 2710 6130
2021-02-27 01:00 3.11 708 6490 (2013) 175 (2006) 1110 182 247 317 395 583 1450 1550 2710 6130
2021-02-27 00:00 3.17 739 6490 (2013) 175 (2006) 1110 182 247 317 395 583 1450 1550 2710 6130
2021-02-26 23:00 3.15 728 14500 (2001) 176 (2006) 1700 183 251 272 350 599 1660 2010 5260 13700
2021-02-26 22:00 3.13 718 14500 (2001) 176 (2006) 1700 183 251 272 350 599 1660 2010 5260 13700
2021-02-26 21:00 3.16 734 14500 (2001) 176 (2006) 1700 183 251 272 350 599 1660 2010 5260 13700
2021-02-26 20:00 3.12 713 14500 (2001) 176 (2006) 1700 183 251 272 350 599 1660 2010 5260 13700
2021-02-26 19:00 3.21 761 14500 (2001) 176 (2006) 1700 183 251 272 350 599 1660 2010 5260 13700
2021-02-26 18:00 3.16 734 14500 (2001) 176 (2006) 1700 183 251 272 350 599 1660 2010 5260 13700
2021-02-26 17:00 3.17 739 14500 (2001) 176 (2006) 1700 183 251 272 350 599 1660 2010 5260 13700
2021-02-26 16:00 3.20 755 14500 (2001) 176 (2006) 1700 183 251 272 350 599 1660 2010 5260 13700
2021-02-26 15:00 3.21 761 14500 (2001) 176 (2006) 1700 183 251 272 350 599 1660 2010 5260 13700
2021-02-26 14:00 3.22 766 14500 (2001) 176 (2006) 1700 183 251 272 350 599 1660 2010 5260 13700
2021-02-26 13:00 3.20 755 14500 (2001) 176 (2006) 1700 183 251 272 350 599 1660 2010 5260 13700
2021-02-26 12:00 3.22 766 14500 (2001) 176 (2006) 1700 183 251 272 350 599 1660 2010 5260 13700
2021-02-26 11:00 3.19 750 14500 (2001) 176 (2006) 1700 183 251 272 350 599 1660 2010 5260 13700
2021-02-26 10:00 3.22 766 14500 (2001) 176 (2006) 1700 183 251 272 350 599 1660 2010 5260 13700
2021-02-26 09:00 3.23 772 14500 (2001) 176 (2006) 1700 183 251 272 350 599 1660 2010 5260 13700
2021-02-26 08:00 3.24 777 14500 (2001) 176 (2006) 1700 183 251 272 350 599 1660 2010 5260 13700
2021-02-26 07:00 3.21 761 14500 (2001) 176 (2006) 1700 183 251 272 350 599 1660 2010 5260 13700
2021-02-26 06:00 3.23 772 14500 (2001) 176 (2006) 1700 183 251 272 350 599 1660 2010 5260 13700
2021-02-26 05:00 3.24 777 14500 (2001) 176 (2006) 1700 183 251 272 350 599 1660 2010 5260 13700
2021-02-26 04:00 3.25 783 14500 (2001) 176 (2006) 1700 183 251 272 350 599 1660 2010 5260 13700
2021-02-26 03:00 3.23 772 14500 (2001) 176 (2006) 1700 183 251 272 350 599 1660 2010 5260 13700
2021-02-26 02:00 3.31 817 14500 (2001) 176 (2006) 1700 183 251 272 350 599 1660 2010 5260 13700
2021-02-26 01:00 3.29 805 14500 (2001) 176 (2006) 1700 183 251 272 350 599 1660 2010 5260 13700
2021-02-26 00:00 3.28 799 14500 (2001) 176 (2006) 1700 183 251 272 350 599 1660 2010 5260 13700
2021-02-25 23:00 3.30 811 18600 (2001) 179 (2006) 2350 185 241 279 363 498 1070 1520 15000 18600
2021-02-25 22:00 3.32 822 18600 (2001) 179 (2006) 2350 185 241 279 363 498 1070 1520 15000 18600
2021-02-25 21:00 3.31 817 18600 (2001) 179 (2006) 2350 185 241 279 363 498 1070 1520 15000 18600
2021-02-25 20:00 3.34 834 18600 (2001) 179 (2006) 2350 185 241 279 363 498 1070 1520 15000 18600
2021-02-25 19:00 3.34 834 18600 (2001) 179 (2006) 2350 185 241 279 363 498 1070 1520 15000 18600
2021-02-25 18:00 3.34 834 18600 (2001) 179 (2006) 2350 185 241 279 363 498 1070 1520 15000 18600
2021-02-25 17:00 3.37 851 18600 (2001) 179 (2006) 2350 185 241 279 363 498 1070 1520 15000 18600
2021-02-25 16:00 3.36 846 18600 (2001) 179 (2006) 2350 185 241 279 363 498 1070 1520 15000 18600
2021-02-25 15:00 3.39 863 18600 (2001) 179 (2006) 2350 185 241 279 363 498 1070 1520 15000 18600
2021-02-25 14:00 3.38 857 18600 (2001) 179 (2006) 2350 185 241 279 363 498 1070 1520 15000 18600
2021-02-25 13:00 3.34 834 18600 (2001) 179 (2006) 2350 185 241 279 363 498 1070 1520 15000 18600
2021-02-25 12:00 3.36 846 18600 (2001) 179 (2006) 2350 185 241 279 363 498 1070 1520 15000 18600
2021-02-25 11:00 3.38 857 18600 (2001) 179 (2006) 2350 185 241 279 363 498 1070 1520 15000 18600
2021-02-25 10:00 3.38 857 18600 (2001) 179 (2006) 2350 185 241 279 363 498 1070 1520 15000 18600
2021-02-25 09:00 3.39 863 18600 (2001) 179 (2006) 2350 185 241 279 363 498 1070 1520 15000 18600
2021-02-25 08:00 3.39 863 18600 (2001) 179 (2006) 2350 185 241 279 363 498 1070 1520 15000 18600
2021-02-25 07:00 3.37 851 18600 (2001) 179 (2006) 2350 185 241 279 363 498 1070 1520 15000 18600
2021-02-25 06:00 3.36 846 18600 (2001) 179 (2006) 2350 185 241 279 363 498 1070 1520 15000 18600
2021-02-25 05:00 3.37 851 18600 (2001) 179 (2006) 2350 185 241 279 363 498 1070 1520 15000 18600
2021-02-25 04:00 3.34 834 18600 (2001) 179 (2006) 2350 185 241 279 363 498 1070 1520 15000 18600
2021-02-25 03:00 3.36 846 18600 (2001) 179 (2006) 2350 185 241 279 363 498 1070 1520 15000 18600
2021-02-25 02:00 3.32 822 18600 (2001) 179 (2006) 2350 185 241 279 363 498 1070 1520 15000 18600
2021-02-25 01:00 3.29 805 18600 (2001) 179 (2006) 2350 185 241 279 363 498 1070 1520 15000 18600
2021-02-25 00:00 3.30 811 18600 (2001) 179 (2006) 2350 185 241 279 363 498 1070 1520 15000 18600
2021-02-24 23:00 3.28 799 6440 (2018) 180 (2006) 925 185 232 289 353 471 898 966 2060 6010
2021-02-24 22:00 3.26 788 6440 (2018) 180 (2006) 925 185 232 289 353 471 898 966 2060 6010
2021-02-24 21:00 3.28 799 6440 (2018) 180 (2006) 925 185 232 289 353 471 898 966 2060 6010
2021-02-24 20:00 3.30 811 6440 (2018) 180 (2006) 925 185 232 289 353 471 898 966 2060 6010
2021-02-24 19:00 3.27 794 6440 (2018) 180 (2006) 925 185 232 289 353 471 898 966 2060 6010
2021-02-24 18:00 3.28 799 6440 (2018) 180 (2006) 925 185 232 289 353 471 898 966 2060 6010
2021-02-24 17:00 3.26 788 6440 (2018) 180 (2006) 925 185 232 289 353 471 898 966 2060 6010
2021-02-24 16:00 3.29 805 6440 (2018) 180 (2006) 925 185 232 289 353 471 898 966 2060 6010
2021-02-24 15:00 3.29 805 6440 (2018) 180 (2006) 925 185 232 289 353 471 898 966 2060 6010
2021-02-24 14:00 3.31 817 6440 (2018) 180 (2006) 925 185 232 289 353 471 898 966 2060 6010
2021-02-24 13:00 3.30 811 6440 (2018) 180 (2006) 925 185 232 289 353 471 898 966 2060 6010
2021-02-24 12:00 3.36 846 6440 (2018) 180 (2006) 925 185 232 289 353 471 898 966 2060 6010
2021-02-24 11:00 3.32 822 6440 (2018) 180 (2006) 925 185 232 289 353 471 898 966 2060 6010
2021-02-24 10:00 3.32 822 6440 (2018) 180 (2006) 925 185 232 289 353 471 898 966 2060 6010
2021-02-24 09:00 3.34 834 6440 (2018) 180 (2006) 925 185 232 289 353 471 898 966 2060 6010
2021-02-24 08:00 3.34 834 6440 (2018) 180 (2006) 925 185 232 289 353 471 898 966 2060 6010
2021-02-24 07:00 3.32 822 6440 (2018) 180 (2006) 925 185 232 289 353 471 898 966 2060 6010
2021-02-24 06:00 3.31 817 6440 (2018) 180 (2006) 925 185 232 289 353 471 898 966 2060 6010
2021-02-24 05:00 3.25 783 6440 (2018) 180 (2006) 925 185 232 289 353 471 898 966 2060 6010
2021-02-24 04:00 3.18 744 6440 (2018) 180 (2006) 925 185 232 289 353 471 898 966 2060 6010
2021-02-24 03:00 3.13 718 6440 (2018) 180 (2006) 925 185 232 289 353 471 898 966 2060 6010
2021-02-24 02:00 3.06 682 6440 (2018) 180 (2006) 925 185 232 289 353 471 898 966 2060 6010
2021-02-24 01:00 2.96 633 6440 (2018) 180 (2006) 925 185 232 289 353 471 898 966 2060 6010
2021-02-24 00:00 2.84 578 6440 (2018) 180 (2006) 925 185 232 289 353 471 898 966 2060 6010
2021-02-23 23:00 2.78 552 2050 (2018) 182 (2006) 676 186 225 305 374 493 845 967 1740 2040
2021-02-23 22:00 2.73 530 2050 (2018) 182 (2006) 676 186 225 305 374 493 845 967 1740 2040
2021-02-23 21:00 2.71 522 2050 (2018) 182 (2006) 676 186 225 305 374 493 845 967 1740 2040
2021-02-23 20:00 2.70 518 2050 (2018) 182 (2006) 676 186 225 305 374 493 845 967 1740 2040
2021-02-23 19:00 2.67 506 2050 (2018) 182 (2006) 676 186 225 305 374 493 845 967 1740 2040
2021-02-23 18:00 2.65 498 2050 (2018) 182 (2006) 676 186 225 305 374 493 845 967 1740 2040
2021-02-23 17:00 2.68 510 2050 (2018) 182 (2006) 676 186 225 305 374 493 845 967 1740 2040
2021-02-23 16:00 2.64 494 2050 (2018) 182 (2006) 676 186 225 305 374 493 845 967 1740 2040
2021-02-23 15:00 2.63 490 2050 (2018) 182 (2006) 676 186 225 305 374 493 845 967 1740 2040
2021-02-23 14:00 2.64 494 2050 (2018) 182 (2006) 676 186 225 305 374 493 845 967 1740 2040
2021-02-23 13:00 2.62 486 2050 (2018) 182 (2006) 676 186 225 305 374 493 845 967 1740 2040
2021-02-23 12:00 2.61 482 2050 (2018) 182 (2006) 676 186 225 305 374 493 845 967 1740 2040
2021-02-23 11:00 2.61 482 2050 (2018) 182 (2006) 676 186 225 305 374 493 845 967 1740 2040
2021-02-23 10:00 2.60 478 2050 (2018) 182 (2006) 676 186 225 305 374 493 845 967 1740 2040
2021-02-23 09:00 2.60 478 2050 (2018) 182 (2006) 676 186 225 305 374 493 845 967 1740 2040
2021-02-23 08:00 2.61 482 2050 (2018) 182 (2006) 676 186 225 305 374 493 845 967 1740 2040
2021-02-23 07:00 2.58 470 2050 (2018) 182 (2006) 676 186 225 305 374 493 845 967 1740 2040
2021-02-23 06:00 2.60 478 2050 (2018) 182 (2006) 676 186 225 305 374 493 845 967 1740 2040
2021-02-23 05:00 2.60 478 2050 (2018) 182 (2006) 676 186 225 305 374 493 845 967 1740 2040
2021-02-23 04:00 2.59 474 2050 (2018) 182 (2006) 676 186 225 305 374 493 845 967 1740 2040
2021-02-23 03:00 2.60 478 2050 (2018) 182 (2006) 676 186 225 305 374 493 845 967 1740 2040
2021-02-23 02:00 2.59 474 2050 (2018) 182 (2006) 676 186 225 305 374 493 845 967 1740 2040
2021-02-23 01:00 2.58 470 2050 (2018) 182 (2006) 676 186 225 305 374 493 845 967 1740 2040
2021-02-23 00:00 2.57 467 2050 (2018) 182 (2006) 676 186 225 305 374 493 845 967 1740 2040
2021-02-22 23:00 2.57 467 4340 (2018) 184 (2006) 792 188 220 312 390 523 776 837 2000 4130
2021-02-22 22:00 2.57 467 4340 (2018) 184 (2006) 792 188 220 312 390 523 776 837 2000 4130
2021-02-22 21:00 2.57 467 4340 (2018) 184 (2006) 792 188 220 312 390 523 776 837 2000 4130
2021-02-22 20:00 2.58 470 4340 (2018) 184 (2006) 792 188 220 312 390 523 776 837 2000 4130
2021-02-22 19:00 2.59 474 4340 (2018) 184 (2006) 792 188 220 312 390 523 776 837 2000 4130
2021-02-22 18:00 2.55 459 4340 (2018) 184 (2006) 792 188 220 312 390 523 776 837 2000 4130
2021-02-22 17:00 2.58 470 4340 (2018) 184 (2006) 792 188 220 312 390 523 776 837 2000 4130
2021-02-22 16:00 2.57 467 4340 (2018) 184 (2006) 792 188 220 312 390 523 776 837 2000 4130
2021-02-22 15:00 2.57 467 4340 (2018) 184 (2006) 792 188 220 312 390 523 776 837 2000 4130
2021-02-22 14:00 2.56 463 4340 (2018) 184 (2006) 792 188 220 312 390 523 776 837 2000 4130
2021-02-22 13:00 2.55 459 4340 (2018) 184 (2006) 792 188 220 312 390 523 776 837 2000 4130
2021-02-22 12:00 2.57 467 4340 (2018) 184 (2006) 792 188 220 312 390 523 776 837 2000 4130
2021-02-22 11:00 2.58 470 4340 (2018) 184 (2006) 792 188 220 312 390 523 776 837 2000 4130
2021-02-22 10:00 2.55 459 4340 (2018) 184 (2006) 792 188 220 312 390 523 776 837 2000 4130
2021-02-22 09:00 2.56 463 4340 (2018) 184 (2006) 792 188 220 312 390 523 776 837 2000 4130
2021-02-22 08:00 2.56 463 4340 (2018) 184 (2006) 792 188 220 312 390 523 776 837 2000 4130
2021-02-22 07:00 2.56 463 4340 (2018) 184 (2006) 792 188 220 312 390 523 776 837 2000 4130
2021-02-22 06:00 2.54 455 4340 (2018) 184 (2006) 792 188 220 312 390 523 776 837 2000 4130
2021-02-22 05:00 2.54 455 4340 (2018) 184 (2006) 792 188 220 312 390 523 776 837 2000 4130
2021-02-22 04:00 2.55 459 4340 (2018) 184 (2006) 792 188 220 312 390 523 776 837 2000 4130
2021-02-22 03:00 2.58 470 4340 (2018) 184 (2006) 792 188 220 312 390 523 776 837 2000 4130
2021-02-22 02:00 2.57 467 4340 (2018) 184 (2006) 792 188 220 312 390 523 776 837 2000 4130
2021-02-22 01:00 2.57 467 4340 (2018) 184 (2006) 792 188 220 312 390 523 776 837 2000 4130
2021-02-22 00:00 2.54 455 4340 (2018) 184 (2006) 792 188 220 312 390 523 776 837 2000 4130
2021-02-21 23:00 2.57 467 2310 (2019) 186 (2006) 672 189 220 316 401 559 836 951 1290 2210
2021-02-21 22:00 2.54 455 2310 (2019) 186 (2006) 672 189 220 316 401 559 836 951 1290 2210
2021-02-21 21:00 2.56 463 2310 (2019) 186 (2006) 672 189 220 316 401 559 836 951 1290 2210
2021-02-21 20:00 2.54 455 2310 (2019) 186 (2006) 672 189 220 316 401 559 836 951 1290 2210
2021-02-21 19:00 2.56 463 2310 (2019) 186 (2006) 672 189 220 316 401 559 836 951 1290 2210
2021-02-21 18:00 2.55 459 2310 (2019) 186 (2006) 672 189 220 316 401 559 836 951 1290 2210
2021-02-21 17:00 2.56 463 2310 (2019) 186 (2006) 672 189 220 316 401 559 836 951 1290 2210
2021-02-21 16:00 2.56 463 2310 (2019) 186 (2006) 672 189 220 316 401 559 836 951 1290 2210
2021-02-21 15:00 2.53 452 2310 (2019) 186 (2006) 672 189 220 316 401 559 836 951 1290 2210
2021-02-21 14:00 2.57 467 2310 (2019) 186 (2006) 672 189 220 316 401 559 836 951 1290 2210
2021-02-21 13:00 2.56 463 2310 (2019) 186 (2006) 672 189 220 316 401 559 836 951 1290 2210
2021-02-21 12:00 2.56 463 2310 (2019) 186 (2006) 672 189 220 316 401 559 836 951 1290 2210
2021-02-21 11:00 2.54 455 2310 (2019) 186 (2006) 672 189 220 316 401 559 836 951 1290 2210
2021-02-21 10:00 2.55 459 2310 (2019) 186 (2006) 672 189 220 316 401 559 836 951 1290 2210
2021-02-21 09:00 2.54 455 2310 (2019) 186 (2006) 672 189 220 316 401 559 836 951 1290 2210
2021-02-21 08:00 2.56 463 2310 (2019) 186 (2006) 672 189 220 316 401 559 836 951 1290 2210
2021-02-21 07:00 2.56 463 2310 (2019) 186 (2006) 672 189 220 316 401 559 836 951 1290 2210
2021-02-21 06:00 2.56 463 2310 (2019) 186 (2006) 672 189 220 316 401 559 836 951 1290 2210
2021-02-21 05:00 2.57 467 2310 (2019) 186 (2006) 672 189 220 316 401 559 836 951 1290 2210
2021-02-21 04:00 2.58 470 2310 (2019) 186 (2006) 672 189 220 316 401 559 836 951 1290 2210
2021-02-21 03:00 2.56 463 2310 (2019) 186 (2006) 672 189 220 316 401 559 836 951 1290 2210
2021-02-21 02:00 2.59 474 2310 (2019) 186 (2006) 672 189 220 316 401 559 836 951 1290 2210
2021-02-21 01:00 2.55 459 2310 (2019) 186 (2006) 672 189 220 316 401 559 836 951 1290 2210
2021-02-21 00:00 2.56 463 2310 (2019) 186 (2006) 672 189 220 316 401 559 836 951 1290 2210
2021-02-20 23:00 2.58 470 1900 (2008) 187 (2006) 615 189 205 240 312 614 741 874 1110 1820
2021-02-20 22:00 2.56 463 1900 (2008) 187 (2006) 615 189 205 240 312 614 741 874 1110 1820
2021-02-20 21:00 2.57 467 1900 (2008) 187 (2006) 615 189 205 240 312 614 741 874 1110 1820
2021-02-20 20:00 2.57 467 1900 (2008) 187 (2006) 615 189 205 240 312 614 741 874 1110 1820
2021-02-20 19:00 2.55 459 1900 (2008) 187 (2006) 615 189 205 240 312 614 741 874 1110 1820
2021-02-20 18:00 2.55 459 1900 (2008) 187 (2006) 615 189 205 240 312 614 741 874 1110 1820
2021-02-20 17:00 2.56 463 1900 (2008) 187 (2006) 615 189 205 240 312 614 741 874 1110 1820
2021-02-20 16:00 2.58 470 1900 (2008) 187 (2006) 615 189 205 240 312 614 741 874 1110 1820
2021-02-20 15:00 2.55 459 1900 (2008) 187 (2006) 615 189 205 240 312 614 741 874 1110 1820
2021-02-20 14:00 2.54 455 1900 (2008) 187 (2006) 615 189 205 240 312 614 741 874 1110 1820
2021-02-20 13:00 2.56 463 1900 (2008) 187 (2006) 615 189 205 240 312 614 741 874 1110 1820
2021-02-20 12:00 2.56 463 1900 (2008) 187 (2006) 615 189 205 240 312 614 741 874 1110 1820
2021-02-20 11:00 2.56 463 1900 (2008) 187 (2006) 615 189 205 240 312 614 741 874 1110 1820
2021-02-20 10:00 2.56 463 1900 (2008) 187 (2006) 615 189 205 240 312 614 741 874 1110 1820
2021-02-20 09:00 2.54 455 1900 (2008) 187 (2006) 615 189 205 240 312 614 741 874 1110 1820
2021-02-20 08:00 2.55 459 1900 (2008) 187 (2006) 615 189 205 240 312 614 741 874 1110 1820
2021-02-20 07:00 2.56 463 1900 (2008) 187 (2006) 615 189 205 240 312 614 741 874 1110 1820
2021-02-20 06:00 2.55 459 1900 (2008) 187 (2006) 615 189 205 240 312 614 741 874 1110 1820
2021-02-20 05:00 2.57 467 1900 (2008) 187 (2006) 615 189 205 240 312 614 741 874 1110 1820
2021-02-20 04:00 2.56 463 1900 (2008) 187 (2006) 615 189 205 240 312 614 741 874 1110 1820
2021-02-20 03:00 2.56 463 1900 (2008) 187 (2006) 615 189 205 240 312 614 741 874 1110 1820
2021-02-20 02:00 2.56 463 1900 (2008) 187 (2006) 615 189 205 240 312 614 741 874 1110 1820
2021-02-20 01:00 2.57 467 1900 (2008) 187 (2006) 615 189 205 240 312 614 741 874 1110 1820
2021-02-20 00:00 2.58 470 1900 (2008) 187 (2006) 615 189 205 240 312 614 741 874 1110 1820

A total of 185 rows are displayed for years 2000 through 2020.